Terminal Aerodrome Forecast
Issued by NWS

Home | Current Version | Previous Version | Text Only | Print | Product List | Glossary On
Versions: 1 2 3 4 5 6 7 8 9 10 11 12 13 14 15
000
FTUS45 KCYS 201721
TAFLAR
TAF
KLAR 201721Z 2018/2118 03006KT P6SM BKN100
     FM201900 15012KT P6SM OVC050
     FM202000 11012KT 6SM -SN BR OVC030
     FM210100 11011KT 1 1/2SM -SN BR OVC007
     FM210400 12014KT 1/2SM SN FG OVC005=

USA.gov is the U.S. government's official web portal to all federal, state and local government web resources and services.